ePrivacy and GPDR Cookie Consent by Cookie Consent
EmailTwitter


Observations de surface / France / LFBO (07630)

Régions: Québec | Canada | États-Unis | Europe | France | UK | Ailleurs
Station
Affichage
Infos & localisation pour LFBO (07630) | Aide pour décoder les METARs

Observations prises le 2021-06-23 à 11H00 UTC à TOULOUSE/BLAGNAC, FR (LFBO)

Etat du ciel: partiellement nuageux.

Température: 19.0 Celsius

Point de rosée: 14.0 Celsius

Humidité relative: 73%

Vents: Ouest à 13 km/h ou 7 noeuds.

Pression au niveau moyen de la mer: 101.90 kilopascals.

Visibilité horizontale: 6.21 milles terrestres ou 9.94 kilomètres.

Hauteur du plafond: 2256 mètres ( 7400 pieds ).

Observation METAR:

LFBO 231100Z AUTO 26007KT 9999 SCT020 BKN074 BKN084 19/14 Q1019 TEMPO 4000 RA

SCT030CB=